Time;durP1;ratioP1;P1;durP2;ratioP2;P2;SDS_P1;SDS_P2;PMS_P1;PMS_P2;Temp;Humidity;BMP_temperature;BMP_pressure;BME280_temperature;BME280_humidity;BME280_pressure;Samples;Min_cycle;Max_cycle;Signal;HPM_P1;HPM_P2
2023/09/07 00:01:08;;;;;;;9.25;4.95;;;;;;;20.10;59.84;101261.91;5030845;28;20199;-69
2023/09/07 00:03:40;;;;;;;10.80;5.53;;;;;;;20.10;59.83;101261.91;5030861;28;20215;-66
2023/09/07 00:06:11;;;;;;;9.38;5.40;;;;;;;20.09;59.87;101262.81;5026504;28;20597;-69
2023/09/07 00:08:39;;;;;;;6.43;5.07;;;;;;;20.08;60.11;101266.34;5031894;28;20722;-66
2023/09/07 00:11:09;;;;;;;8.93;5.50;;;;;;;20.05;60.33;101266.44;5028392;28;20305;-68
2023/09/07 00:13:37;;;;;;;9.52;5.47;;;;;;;20.05;60.20;101261.19;5030972;28;20210;-68
2023/09/07 00:16:07;;;;;;;12.43;5.60;;;;;;;20.00;60.21;101265.72;5033343;28;20273;-66
2023/09/07 00:18:35;;;;;;;7.13;5.35;;;;;;;19.98;60.44;101259.66;5026380;28;20242;-68
2023/09/07 00:21:03;;;;;;;9.13;5.22;;;;;;;19.97;60.71;101268.44;5030653;28;20764;-67
2023/09/07 00:23:32;;;;;;;8.73;5.85;;;;;;;19.97;60.69;101268.44;5031793;28;20638;-66
2023/09/07 00:26:00;;;;;;;10.75;5.72;;;;;;;19.93;60.81;101266.81;5031147;28;20650;-67
2023/09/07 00:28:28;;;;;;;9.35;5.93;;;;;;;19.93;60.75;101267.66;5028883;28;20214;-66
2023/09/07 00:30:56;;;;;;;10.13;4.57;;;;;;;19.91;60.88;101266.00;5030451;28;20218;-66
2023/09/07 00:33:24;;;;;;;7.25;5.47;;;;;;;19.91;61.02;101266.00;5029541;28;20211;-67
2023/09/07 00:35:52;;;;;;;9.48;5.30;;;;;;;19.85;60.97;101271.44;5031303;28;20257;-67
2023/09/07 00:38:20;;;;;;;8.20;5.22;;;;;;;19.81;61.22;101272.41;5031980;28;20230;-67
2023/09/07 00:40:49;;;;;;;7.63;4.75;;;;;;;19.77;61.03;101262.06;5032435;28;20198;-66
2023/09/07 00:43:17;;;;;;;12.73;6.00;;;;;;;19.75;61.20;101260.38;5034581;28;20662;-68
2023/09/07 00:45:45;;;;;;;7.22;5.07;;;;;;;19.75;61.08;101258.63;5026027;28;20211;-67
2023/09/07 00:48:15;;;;;;;8.80;5.43;;;;;;;19.75;61.01;101263.84;5028785;28;20310;-67
2023/09/07 00:50:44;;;;;;;6.50;5.22;;;;;;;19.72;61.08;101266.56;5028073;28;20608;-65
2023/09/07 00:53:12;;;;;;;7.25;5.43;;;;;;;19.69;61.40;101266.63;5030908;28;20222;-66
2023/09/07 00:55:40;;;;;;;10.93;5.85;;;;;;;19.68;61.35;101272.78;5031879;28;20206;-67
2023/09/07 00:58:11;;;;;;;11.02;6.03;;;;;;;19.69;61.44;101273.63;5031807;28;20207;-65
2023/09/07 01:00:40;;;;;;;14.70;6.28;;;;;;;19.70;61.91;101267.50;5021951;28;20566;-66
2023/09/07 01:03:08;;;;;;;9.07;5.75;;;;;;;19.70;62.12;101265.75;5031201;28;20601;-67
2023/09/07 01:05:44;;;;;;;9.43;5.97;;;;;;;19.69;61.68;101264.03;5031889;28;20207;-67
2023/09/07 01:08:17;;;;;;;12.93;6.20;;;;;;;19.68;61.92;101262.31;5027188;28;20566;-67
2023/09/07 01:10:46;;;;;;;12.27;5.75;;;;;;;19.69;62.27;101258.78;5025392;28;20211;-68
2023/09/07 01:13:15;;;;;;;9.13;6.47;;;;;;;19.71;62.31;101262.22;5027811;28;20317;-67
2023/09/07 01:15:43;;;;;;;13.93;5.95;;;;;;;19.74;61.78;101262.16;5022783;28;20202;-67
2023/09/07 01:18:12;;;;;;;14.50;6.10;;;;;;;19.77;61.43;101267.28;5032004;28;20203;-69
2023/09/07 01:21:03;;;;;;;11.20;5.68;;;;;;;19.77;61.64;101267.28;5027297;28;20246;-66
2023/09/07 01:23:32;;;;;;;8.02;6.00;;;;;;;19.70;61.67;101271.00;5029652;28;20238;-66
2023/09/07 01:26:00;;;;;;;11.20;5.95;;;;;;;19.63;61.88;101269.47;5031632;28;20203;-67
2023/09/07 01:28:28;;;;;;;9.50;5.70;;;;;;;19.55;62.46;101277.50;5027658;28;20210;-68
2023/09/07 01:30:57;;;;;;;8.77;5.97;;;;;;;19.49;62.64;101275.06;5033109;28;20214;-65
2023/09/07 01:33:25;;;;;;;11.93;5.65;;;;;;;19.44;62.67;101278.69;5023615;28;20211;-67
2023/09/07 01:35:53;;;;;;;10.52;6.20;;;;;;;19.41;63.07;101289.25;5025152;28;20214;-69
2023/09/07 01:38:21;;;;;;;7.65;5.53;;;;;;;19.39;62.95;101285.81;5030830;28;20210;-67
2023/09/07 01:40:50;;;;;;;9.65;5.85;;;;;;;19.36;62.80;101281.50;5030598;28;20214;-67
2023/09/07 01:43:18;;;;;;;8.50;5.55;;;;;;;19.34;63.06;101277.25;5029016;28;20222;-66
2023/09/07 01:45:46;;;;;;;7.35;5.47;;;;;;;19.34;62.93;101285.94;5030478;28;20209;-66
2023/09/07 01:48:15;;;;;;;5.90;4.75;;;;;;;19.28;62.86;101283.50;5030820;28;20202;-67
2023/09/07 01:50:43;;;;;;;8.57;5.05;;;;;;;19.25;63.24;101287.03;5028359;28;20568;-68
2023/09/07 01:53:11;;;;;;;7.28;5.05;;;;;;;19.23;63.36;101285.38;5029983;28;20689;-66
2023/09/07 01:55:39;;;;;;;9.00;5.28;;;;;;;19.20;63.51;101282.84;5030734;28;20211;-68
2023/09/07 01:58:08;;;;;;;8.00;5.47;;;;;;;19.15;63.71;101279.53;5026621;28;20712;-69
2023/09/07 02:00:40;;;;;;;12.63;5.70;;;;;;;19.13;63.96;101274.31;5029837;28;20677;-67
2023/09/07 02:03:08;;;;;;;8.75;5.50;;;;;;;19.14;63.68;101281.25;5026855;28;20205;-66
2023/09/07 02:05:36;;;;;;;9.50;5.30;;;;;;;19.12;63.84;101284.81;5030687;28;20210;-66
2023/09/07 02:08:04;;;;;;;10.32;5.65;;;;;;;19.10;63.89;101284.84;5027675;28;20214;-66
2023/09/07 02:10:33;;;;;;;10.73;5.80;;;;;;;19.07;63.87;101279.69;5029587;28;20229;-66
2023/09/07 02:13:01;;;;;;;7.95;5.25;;;;;;;19.04;64.08;101280.66;5026604;28;20218;-67
2023/09/07 02:15:31;;;;;;;8.35;5.22;;;;;;;19.03;64.03;101288.53;5029591;28;20198;-67
2023/09/07 02:17:59;;;;;;;7.20;5.05;;;;;;;19.02;64.19;101276.38;5020559;28;20298;-67
2023/09/07 02:20:27;;;;;;;8.23;5.85;;;;;;;19.02;64.23;101284.22;5025488;28;20238;-68
2023/09/07 02:22:55;;;;;;;6.88;5.60;;;;;;;19.01;64.19;101274.66;5025758;28;20610;-68
2023/09/07 02:25:22;;;;;;;9.48;5.40;;;;;;;19.02;64.44;101286.81;5023291;28;20214;-66
2023/09/07 02:27:50;;;;;;;9.02;5.68;;;;;;;19.01;64.41;101280.75;5028971;28;20207;-64
2023/09/07 02:30:18;;;;;;;11.43;6.20;;;;;;;19.00;64.51;101279.03;5028717;28;20207;-66
2023/09/07 02:32:48;;;;;;;8.02;6.13;;;;;;;18.97;64.74;101279.13;5029252;28;20264;-66
2023/09/07 02:35:16;;;;;;;12.25;6.13;;;;;;;18.97;64.64;101286.09;5029724;28;20206;-66
2023/09/07 02:37:44;;;;;;;9.45;5.47;;;;;;;18.96;64.57;101286.97;5026188;28;20260;-67
2023/09/07 02:40:12;;;;;;;9.00;6.50;;;;;;;18.91;64.71;101288.84;5029379;28;20203;-67
2023/09/07 02:42:40;;;;;;;9.27;6.05;;;;;;;18.88;64.94;101284.56;5026388;28;20209;-66
2023/09/07 02:45:11;;;;;;;9.10;6.10;;;;;;;18.83;65.11;101300.34;5025539;28;20202;-67
2023/09/07 02:47:39;;;;;;;9.43;5.90;;;;;;;18.83;64.96;101292.53;5029747;28;20206;-71
2023/09/07 02:50:09;;;;;;;8.98;5.97;;;;;;;18.81;65.11;101293.44;5029807;28;20210;-66
2023/09/07 02:52:37;;;;;;;11.70;6.72;;;;;;;18.79;65.03;101284.81;5026642;28;20254;-65
2023/09/07 02:55:06;;;;;;;9.80;6.22;;;;;;;18.79;65.09;101297.88;5028532;28;20207;-66
2023/09/07 02:57:35;;;;;;;13.02;5.85;;;;;;;18.78;65.11;101289.19;5028511;28;20203;-65
2023/09/07 03:00:09;;;;;;;10.57;6.72;;;;;;;18.80;64.90;101291.75;5026062;28;20222;-66
2023/09/07 03:02:38;;;;;;;10.27;6.53;;;;;;;18.77;65.04;101297.91;5022658;28;20299;-67
2023/09/07 03:05:06;;;;;;;8.30;5.88;;;;;;;18.76;64.98;101295.34;5031686;28;20241;-67
2023/09/07 03:07:36;;;;;;;12.73;6.03;;;;;;;18.74;65.03;101299.72;5030383;28;20284;-65
2023/09/07 03:10:04;;;;;;;15.07;6.93;;;;;;;18.71;65.34;101299.81;5029392;28;20622;-66
2023/09/07 03:12:32;;;;;;;10.70;7.38;;;;;;;18.69;65.30;101296.34;5028687;28;20257;-67
2023/09/07 03:15:03;;;;;;;9.35;6.10;;;;;;;18.66;65.34;101302.50;5023214;28;20218;-67
2023/09/07 03:17:31;;;;;;;11.43;6.60;;;;;;;18.64;65.32;101306.91;5028828;28;20630;-66
2023/09/07 03:19:59;;;;;;;12.80;6.80;;;;;;;18.61;65.43;101306.13;5033339;28;20234;-66
2023/09/07 03:22:29;;;;;;;9.65;7.22;;;;;;;18.54;65.47;101305.41;5027507;28;20210;-66
2023/09/07 03:24:58;;;;;;;10.73;7.75;;;;;;;18.55;65.57;101301.91;5032840;28;20297;-68
2023/09/07 03:27:26;;;;;;;12.02;8.05;;;;;;;18.53;65.60;101309.78;5034946;28;20214;-67
2023/09/07 03:29:54;;;;;;;11.82;7.22;;;;;;;18.52;65.70;101308.09;5033200;28;20199;-67
2023/09/07 03:32:22;;;;;;;14.68;7.18;;;;;;;18.50;65.97;101306.41;5035183;28;20210;-66
2023/09/07 03:34:50;;;;;;;14.27;7.07;;;;;;;18.53;66.41;101308.94;5034594;28;20238;-66
2023/09/07 03:37:18;;;;;;;9.80;7.50;;;;;;;18.53;65.87;101303.72;5033325;28;20206;-68
2023/09/07 03:39:46;;;;;;;9.23;7.00;;;;;;;18.56;65.86;101306.25;5032495;28;20299;-67
2023/09/07 03:42:15;;;;;;;10.00;6.90;;;;;;;18.55;65.84;101307.97;5033666;28;20665;-66
2023/09/07 03:44:43;;;;;;;9.75;7.32;;;;;;;18.51;65.89;101295.91;5032748;28;20198;-66
2023/09/07 03:47:15;;;;;;;10.02;6.93;;;;;;;18.50;65.97;101301.16;5033850;28;20700;-65
2023/09/07 03:49:43;;;;;;;10.68;7.05;;;;;;;18.50;65.96;101315.06;5032529;28;20294;-65
2023/09/07 03:52:12;;;;;;;9.88;7.45;;;;;;;18.47;66.08;101304.69;5031080;28;20620;-66
2023/09/07 03:54:40;;;;;;;10.13;7.53;;;;;;;18.47;66.16;101311.69;5029375;28;20689;-65
2023/09/07 03:57:08;;;;;;;11.55;8.40;;;;;;;18.44;66.25;101319.56;5034008;28;20613;-65
2023/09/07 03:59:37;;;;;;;13.07;7.85;;;;;;;18.42;66.29;101309.19;5027934;28;20203;-66
2023/09/07 04:02:05;;;;;;;12.13;7.35;;;;;;;18.40;66.51;101312.72;5030783;28;20219;-67
2023/09/07 04:04:33;;;;;;;11.82;7.88;;;;;;;18.39;66.47;101311.00;5031626;28;20202;-66
2023/09/07 04:07:01;;;;;;;12.57;7.28;;;;;;;18.38;66.42;101314.53;5032096;28;20293;-66
2023/09/07 04:09:29;;;;;;;10.68;7.60;;;;;;;18.37;66.34;101312.78;5029595;28;20214;-66
2023/09/07 04:11:57;;;;;;;13.88;8.10;;;;;;;18.34;66.52;101317.19;5031936;28;20211;-66
2023/09/07 04:14:25;;;;;;;10.68;8.00;;;;;;;18.29;66.59;101308.59;5033305;28;20449;-65
2023/09/07 04:16:54;;;;;;;15.55;8.00;;;;;;;18.34;66.57;101314.59;5032962;28;20234;-66
2023/09/07 04:19:22;;;;;;;10.13;7.07;;;;;;;18.34;66.69;101314.59;5031897;28;20328;-67
2023/09/07 04:21:51;;;;;;;10.20;7.72;;;;;;;18.37;66.75;101318.00;5028745;28;20209;-67
2023/09/07 04:24:19;;;;;;;16.27;8.40;;;;;;;18.38;67.05;101320.59;5030122;28;20198;-65
2023/09/07 04:26:48;;;;;;;18.50;7.70;;;;;;;18.41;66.95;101319.66;5028721;28;20202;-65
2023/09/07 04:29:17;;;;;;;11.80;8.18;;;;;;;18.42;66.75;101316.16;5031623;28;20286;-66
2023/09/07 04:31:45;;;;;;;10.32;7.70;;;;;;;18.40;67.23;101310.97;5032174;28;20206;-67
2023/09/07 04:34:14;;;;;;;11.60;7.88;;;;;;;18.40;67.69;101313.56;5033100;28;20622;-66
2023/09/07 04:36:42;;;;;;;10.93;8.00;;;;;;;18.40;67.79;101317.94;5032403;28;20206;-66
2023/09/07 04:39:10;;;;;;;12.55;8.30;;;;;;;18.41;67.67;101315.31;5032282;28;20203;-67
2023/09/07 04:41:38;;;;;;;12.68;8.35;;;;;;;18.40;67.97;101312.72;5022934;28;20682;-66
2023/09/07 04:44:06;;;;;;;13.13;8.57;;;;;;;18.39;68.05;101316.22;5020677;28;20720;-66
2023/09/07 04:46:34;;;;;;;11.40;8.85;;;;;;;18.40;68.40;101318.78;5031369;28;20587;-64
2023/09/07 04:49:02;;;;;;;15.43;9.82;;;;;;;18.45;68.14;101327.38;5024523;28;20710;-65
2023/09/07 04:51:31;;;;;;;14.65;9.52;;;;;;;18.50;68.41;101324.66;5031318;28;20236;-68
2023/09/07 04:53:59;;;;;;;12.40;9.20;;;;;;;18.59;68.36;101334.88;5026659;28;20222;-64
2023/09/07 04:56:28;;;;;;;10.93;8.75;;;;;;;18.68;67.76;101332.06;5023203;28;20410;-68
2023/09/07 04:58:59;;;;;;;11.88;9.90;;;;;;;18.70;67.55;101327.63;5022275;28;20203;-61
2023/09/07 05:01:27;;;;;;;16.02;10.60;;;;;;;18.72;67.40;101336.34;5023891;28;20214;-63
2023/09/07 05:03:55;;;;;;;12.93;8.98;;;;;;;18.75;67.51;101341.47;5032119;28;20249;-61
2023/09/07 05:06:23;;;;;;;15.20;9.48;;;;;;;18.77;67.65;101338.81;5025568;28;20260;-62
2023/09/07 05:08:53;;;;;;;12.82;9.00;;;;;;;18.83;67.30;101339.53;5025709;28;20211;-64
2023/09/07 05:11:20;;;;;;;11.70;9.63;;;;;;;18.87;67.26;101349.91;5030178;28;20575;-61
2023/09/07 05:13:48;;;;;;;13.60;9.50;;;;;;;18.87;66.96;101352.53;5030000;28;20692;-59
2023/09/07 05:16:16;;;;;;;14.90;10.48;;;;;;;18.82;67.07;101353.50;5027101;28;20203;-64
2023/09/07 05:18:44;;;;;;;13.82;9.68;;;;;;;18.76;67.50;101351.03;5026369;28;20203;-62
2023/09/07 05:21:13;;;;;;;15.02;9.90;;;;;;;18.75;67.55;101357.16;5027359;28;20229;-64
2023/09/07 05:23:42;;;;;;;13.40;9.77;;;;;;;18.79;67.45;101357.94;5030403;28;20206;-61
2023/09/07 05:26:11;;;;;;;13.82;10.07;;;;;;;18.82;67.25;101358.72;5030401;28;20214;-61
2023/09/07 05:28:41;;;;;;;15.73;10.55;;;;;;;18.82;67.21;101356.09;5029365;28;20256;-61
2023/09/07 05:31:09;;;;;;;13.73;10.48;;;;;;;18.85;67.29;101357.75;5025279;28;20203;-61
2023/09/07 05:33:37;;;;;;;15.35;10.63;;;;;;;18.86;66.77;101356.03;5032052;28;20264;-63
2023/09/07 05:36:06;;;;;;;18.13;11.88;;;;;;;18.82;67.08;101361.31;5026151;28;20583;-61
2023/09/07 05:38:34;;;;;;;14.88;10.75;;;;;;;18.77;66.76;101355.34;5020701;28;20207;-61
2023/09/07 05:41:02;;;;;;;15.45;10.30;;;;;;;18.69;67.07;101365.09;5026838;28;20687;-59
2023/09/07 05:43:31;;;;;;;20.45;11.25;;;;;;;18.66;67.24;101362.53;5026621;28;20206;-61
2023/09/07 05:45:59;;;;;;;17.80;11.75;;;;;;;18.62;67.21;101366.13;5031296;28;20202;-63
2023/09/07 05:48:27;;;;;;;16.42;10.73;;;;;;;18.61;67.38;101364.41;5031177;28;20214;-65
2023/09/07 05:50:56;;;;;;;17.52;11.65;;;;;;;18.63;67.22;101361.75;5019922;28;20215;-60
2023/09/07 05:53:26;;;;;;;14.30;11.48;;;;;;;18.64;67.25;101364.34;5026524;28;20206;-61
2023/09/07 05:55:54;;;;;;;18.35;11.75;;;;;;;18.68;67.21;101371.22;5029143;28;20250;-61
2023/09/07 05:58:22;;;;;;;18.73;12.27;;;;;;;18.72;67.06;101377.25;5025745;28;20211;-61
2023/09/07 06:00:51;;;;;;;21.88;11.82;;;;;;;18.75;67.01;101378.03;5029892;28;20203;-62
2023/09/07 06:03:19;;;;;;;19.83;12.77;;;;;;;18.81;66.78;101383.13;5027548;28;20284;-63
2023/09/07 06:05:47;;;;;;;19.05;12.35;;;;;;;18.87;66.28;101382.09;5026075;28;20278;-60
2023/09/07 06:08:15;;;;;;;20.08;11.27;;;;;;;18.91;66.30;101378.50;5030238;28;20207;-63
2023/09/07 06:10:43;;;;;;;17.63;12.55;;;;;;;18.97;66.16;101385.34;5028262;28;20241;-60
2023/09/07 06:13:11;;;;;;;21.55;12.40;;;;;;;19.02;65.87;101386.94;5030545;28;20685;-63
2023/09/07 06:15:39;;;;;;;16.00;11.80;;;;;;;19.10;65.71;101386.75;5021779;28;20273;-63
2023/09/07 06:18:09;;;;;;;14.70;11.05;;;;;;;19.27;65.53;101389.78;5029908;28;20199;-60
2023/09/07 06:20:37;;;;;;;15.52;12.55;;;;;;;20.31;65.16;101386.00;5030616;28;20238;-68
2023/09/07 06:23:05;;;;;;;18.98;11.73;;;;;;;21.77;59.66;101381.19;5031087;28;20203;-60
2023/09/07 06:25:32;;;;;;;19.92;11.70;;;;;;;23.00;54.65;101372.84;5022636;28;20211;-61
2023/09/07 06:28:00;;;;;;;12.77;10.77;;;;;;;24.13;50.71;101369.63;5028225;28;20735;-62
2023/09/07 06:30:28;;;;;;;14.68;10.82;;;;;;;25.01;47.79;101371.50;5030399;28;20211;-63
2023/09/07 06:32:57;;;;;;;14.70;10.88;;;;;;;25.49;45.71;101378.69;5029327;28;20203;-62
2023/09/07 06:35:26;;;;;;;14.65;11.30;;;;;;;25.93;44.42;101383.41;5030003;28;20603;-60
2023/09/07 06:37:55;;;;;;;14.18;10.90;;;;;;;26.62;43.93;101376.94;5033920;28;20207;-60
2023/09/07 06:40:25;;;;;;;16.42;11.02;;;;;;;27.56;41.74;101366.09;5029726;28;20639;-62
2023/09/07 06:42:54;;;;;;;13.95;11.02;;;;;;;28.37;39.83;101367.16;5024991;28;20599;-61
2023/09/07 06:45:23;;;;;;;17.48;10.65;;;;;;;28.82;39.09;101372.16;5029689;28;20272;-61
2023/09/07 06:47:51;;;;;;;15.57;10.82;;;;;;;28.76;38.18;101372.59;5027604;28;20665;-62
2023/09/07 06:50:21;;;;;;;14.75;10.30;;;;;;;28.68;38.24;101370.41;5033841;28;20202;-59
2023/09/07 06:52:51;;;;;;;17.20;10.20;;;;;;;28.65;38.19;101368.84;5036655;28;20309;-62
2023/09/07 06:55:20;;;;;;;12.13;9.90;;;;;;;28.65;38.49;101370.66;5036667;28;20210;-61
2023/09/07 06:57:48;;;;;;;14.50;9.73;;;;;;;28.87;37.81;101376.22;5037207;28;20202;-61
2023/09/07 07:00:16;;;;;;;12.07;9.40;;;;;;;29.27;37.23;101375.31;5036172;28;20210;-62
2023/09/07 07:02:44;;;;;;;13.65;10.13;;;;;;;29.69;36.06;101370.66;5034939;28;20207;-62
2023/09/07 07:05:12;;;;;;;11.75;8.93;;;;;;;30.55;34.96;101373.25;5036218;28;20198;-64
2023/09/07 07:07:40;;;;;;;13.05;8.57;;;;;;;31.64;32.69;101373.78;5035093;28;20269;-65
2023/09/07 07:10:10;;;;;;;15.43;9.45;;;;;;;32.62;30.95;101371.16;5040831;28;20249;-65
2023/09/07 07:12:40;;;;;;;13.32;9.60;;;;;;;33.19;29.69;101374.41;5036309;28;20293;-62
2023/09/07 07:15:09;;;;;;;12.20;8.80;;;;;;;34.01;28.85;101370.81;5033218;28;20241;-64
2023/09/07 07:17:37;;;;;;;16.63;9.68;;;;;;;34.76;26.92;101380.03;5032595;28;20644;-72
2023/09/07 07:20:06;;;;;;;14.68;9.40;;;;;;;35.01;26.23;101381.28;5035636;28;20233;-68
2023/09/07 07:22:35;;;;;;;14.55;9.82;;;;;;;35.30;26.40;101386.59;5029594;28;20250;-70
2023/09/07 07:25:05;;;;;;;13.20;9.50;;;;;;;35.63;25.95;101382.53;5032035;28;20210;-69
2023/09/07 07:27:34;;;;;;;16.25;8.85;;;;;;;35.20;25.64;101383.09;5031286;28;20252;-66
2023/09/07 07:30:03;;;;;;;12.50;8.85;;;;;;;33.79;27.56;101387.91;5032716;28;20292;-67
2023/09/07 07:32:31;;;;;;;12.73;8.77;;;;;;;32.47;29.71;101386.63;5031138;28;20298;-67
2023/09/07 07:34:59;;;;;;;15.13;10.00;;;;;;;31.62;31.25;101391.69;5034702;28;20546;-66
2023/09/07 07:37:27;;;;;;;12.00;9.52;;;;;;;31.13;32.08;101387.50;5034077;28;20244;-67
2023/09/07 07:39:55;;;;;;;13.13;9.63;;;;;;;30.90;33.23;101394.59;5030422;28;20211;-67
2023/09/07 07:42:23;;;;;;;13.85;9.48;;;;;;;30.93;33.74;101389.03;5031416;28;20683;-66
2023/09/07 07:44:53;;;;;;;14.55;9.23;;;;;;;31.50;32.68;101398.00;5031549;28;20206;-66
2023/09/07 07:47:21;;;;;;;17.00;10.10;;;;;;;32.40;31.51;101398.81;5032584;28;20582;-67
2023/09/07 07:49:49;;;;;;;14.80;9.13;;;;;;;32.92;30.61;101398.94;5034624;28;20206;-66
2023/09/07 07:52:17;;;;;;;19.05;9.63;;;;;;;33.12;29.70;101403.44;5036919;28;20226;-66
2023/09/07 07:54:45;;;;;;;14.75;9.20;;;;;;;32.84;29.64;101398.72;5038540;28;20210;-67
2023/09/07 07:57:13;;;;;;;11.77;8.82;;;;;;;32.27;31.02;101402.56;5032513;28;20253;-66
2023/09/07 07:59:40;;;;;;;19.45;9.05;;;;;;;31.74;31.58;101411.19;5034740;28;20581;-67
2023/09/07 08:02:10;;;;;;;15.57;8.85;;;;;;;32.28;32.10;101409.59;5029131;28;20585;-66
2023/09/07 08:04:38;;;;;;;18.55;9.80;;;;;;;33.18;30.28;101404.75;5032724;28;20665;-67
2023/09/07 08:07:08;;;;;;;11.65;7.53;;;;;;;34.22;28.25;101400.16;5032231;28;20206;-66
2023/09/07 08:09:36;;;;;;;10.15;7.32;;;;;;;34.91;27.53;101408.09;5031726;28;20215;-65
2023/09/07 08:12:06;;;;;;;8.50;7.00;;;;;;;35.79;26.56;101406.00;5031282;28;20206;-66
2023/09/07 08:14:34;;;;;;;18.63;8.15;;;;;;;36.87;25.29;101399.78;5030607;28;20211;-67
2023/09/07 08:17:01;;;;;;;38.10;32.30;;;;;;;37.99;23.57;101400.78;5031050;28;20310;-66
2023/09/07 08:19:31;;;;;;;11.35;8.93;;;;;;;38.92;22.55;101400.56;5031267;28;20209;-66
2023/09/07 08:21:59;;;;;;;15.52;7.80;;;;;;;39.62;21.55;101398.03;5032281;28;20209;-64
2023/09/07 08:24:27;;;;;;;14.02;7.07;;;;;;;40.15;20.71;101395.63;5032384;28;20199;-67
2023/09/07 08:26:56;;;;;;;9.10;7.30;;;;;;;40.48;20.35;101398.94;5033039;28;20195;-66
2023/09/07 08:29:26;;;;;;;9.90;7.05;;;;;;;40.63;20.32;101399.84;5030677;28;20218;-65
2023/09/07 08:31:55;;;;;;;14.18;7.55;;;;;;;40.91;19.98;101401.94;5031314;28;20198;-66
2023/09/07 08:34:26;;;;;;;13.98;7.22;;;;;;;41.15;19.52;101404.44;5031009;28;20236;-69
2023/09/07 08:36:58;;;;;;;13.60;7.10;;;;;;;41.02;20.08;101399.69;5030565;28;20790;-68
2023/09/07 08:39:26;;;;;;;12.77;7.80;;;;;;;40.86;20.01;101404.38;5030634;28;20202;-67
2023/09/07 08:41:58;;;;;;;15.00;7.03;;;;;;;40.76;19.98;101399.22;5030142;28;20209;-67
2023/09/07 08:44:30;;;;;;;10.82;6.68;;;;;;;40.66;20.47;101399.47;5030294;28;20620;-67
2023/09/07 08:46:59;;;;;;;18.23;7.00;;;;;;;40.49;20.83;101406.00;5031628;28;20202;-68
2023/09/07 08:49:28;;;;;;;14.13;6.80;;;;;;;40.33;20.62;101406.97;5032707;28;20285;-65
2023/09/07 08:52:00;;;;;;;15.35;6.75;;;;;;;39.92;20.89;101401.81;5029819;28;20209;-71
2023/09/07 08:54:29;;;;;;;13.43;6.95;;;;;;;39.37;21.98;101403.53;5028926;28;20206;-66
2023/09/07 08:56:58;;;;;;;9.00;6.68;;;;;;;38.71;22.06;101410.00;5020563;28;20245;-65
2023/09/07 08:59:26;;;;;;;9.80;6.43;;;;;;;38.09;23.30;101396.94;5030470;28;20225;-67
2023/09/07 09:01:58;;;;;;;10.90;5.82;;;;;;;37.55;22.94;101399.06;5029794;28;20260;-67
2023/09/07 09:04:27;;;;;;;12.25;5.95;;;;;;;36.92;23.77;101397.44;5032168;28;20256;-69
2023/09/07 09:06:58;;;;;;;10.77;6.68;;;;;;;36.18;25.66;101403.16;5028926;28;20213;-66
2023/09/07 09:09:27;;;;;;;10.15;5.78;;;;;;;35.49;26.75;101399.06;5031629;28;20213;-68
2023/09/07 09:11:55;;;;;;;15.68;6.07;;;;;;;34.80;27.18;101401.06;5028984;28;20202;-68
2023/09/07 09:14:23;;;;;;;9.23;6.28;;;;;;;34.11;29.03;101403.78;5031756;28;20210;-67
2023/09/07 09:16:52;;;;;;;13.13;6.05;;;;;;;33.56;29.75;101406.81;5030060;28;20222;-68
2023/09/07 09:19:31;;;;;;;9.68;5.10;;;;;;;32.87;30.82;101401.97;5032582;28;20592;-66
2023/09/07 09:22:03;;;;;;;8.13;4.90;;;;;;;32.59;31.52;101399.94;5030275;28;20641;-67
2023/09/07 09:24:33;;;;;;;19.92;9.38;;;;;;;32.40;31.32;101403.22;5030864;28;20317;-66
2023/09/07 09:27:01;;;;;;;9.98;5.43;;;;;;;32.02;32.54;101401.03;5030606;28;20626;-67
2023/09/07 09:29:29;;;;;;;8.57;4.60;;;;;;;31.62;33.09;101398.84;5017978;28;20257;-67
2023/09/07 09:31:57;;;;;;;10.13;5.07;;;;;;;31.35;33.51;101399.19;5029375;28;20661;-67
2023/09/07 09:34:25;;;;;;;4.72;3.97;;;;;;;31.09;34.00;101399.34;5027390;28;20214;-69
2023/09/07 09:36:54;;;;;;;10.25;4.75;;;;;;;30.76;33.49;101403.63;5031474;28;20223;-65
2023/09/07 09:39:26;;;;;;;8.68;4.15;;;;;;;30.30;34.38;101404.34;5030799;28;20249;-66
2023/09/07 09:41:55;;;;;;;9.32;5.03;;;;;;;30.17;34.96;101400.03;5030575;28;20279;-66
2023/09/07 09:44:25;;;;;;;9.43;4.85;;;;;;;30.05;35.33;101397.25;5028851;28;20680;-66
2023/09/07 09:46:55;;;;;;;7.45;5.10;;;;;;;29.91;35.98;101399.22;5029843;28;20584;-65
2023/09/07 09:49:25;;;;;;;8.65;4.53;;;;;;;29.78;36.09;101400.06;5030093;28;20302;-66
2023/09/07 09:51:54;;;;;;;6.63;4.00;;;;;;;29.83;35.95;101397.09;5021400;28;20198;-66
2023/09/07 09:54:23;;;;;;;6.53;4.25;;;;;;;29.78;36.74;101401.88;5031278;28;20214;-66
2023/09/07 09:56:53;;;;;;;7.57;3.92;;;;;;;29.61;36.62;101403.09;5028033;28;20581;-66
2023/09/07 09:59:22;;;;;;;4.70;3.92;;;;;;;29.41;36.95;101391.13;5033659;28;20273;-64
2023/09/07 10:01:53;;;;;;;5.15;3.47;;;;;;;29.28;37.17;101401.78;5022744;28;20614;-65
2023/09/07 10:04:22;;;;;;;5.25;3.78;;;;;;;29.25;37.51;101394.00;5029155;28;20289;-67
2023/09/07 10:06:54;;;;;;;5.07;3.92;;;;;;;29.34;37.54;101395.19;5029075;28;20583;-65
2023/09/07 10:09:22;;;;;;;4.32;3.47;;;;;;;29.62;36.23;101399.47;5029505;28;20210;-67
2023/09/07 10:11:55;;;;;;;5.45;3.50;;;;;;;29.98;35.78;101387.19;5027699;28;20649;-65
2023/09/07 10:14:23;;;;;;;3.08;2.78;;;;;;;30.34;34.84;101386.31;5031350;28;20219;-66
2023/09/07 10:16:55;;;;;;;3.92;3.53;;;;;;;30.87;34.00;101391.31;5030618;28;20218;-66
2023/09/07 10:19:27;;;;;;;5.25;3.20;;;;;;;31.28;32.84;101398.78;5024625;28;20210;-68
2023/09/07 10:21:56;;;;;;;4.38;3.60;;;;;;;31.67;33.01;101394.03;5033908;28;20202;-68
2023/09/07 10:24:26;;;;;;;3.80;3.33;;;;;;;32.39;31.70;101396.22;5024207;28;20293;-66
2023/09/07 10:27:00;;;;;;;4.47;3.00;;;;;;;32.96;30.76;101384.38;5033660;28;20646;-65
2023/09/07 10:29:28;;;;;;;6.68;2.85;;;;;;;32.58;30.44;101388.41;5029689;28;20281;-67
2023/09/07 10:31:57;;;;;;;8.95;2.83;;;;;;;31.83;30.94;101388.31;5029205;28;20704;-66
2023/09/07 10:34:36;;;;;;;3.00;2.70;;;;;;;30.96;32.36;101398.59;5027419;28;20616;-69
2023/09/07 10:37:04;;;;;;;3.85;3.00;;;;;;;30.50;34.16;101397.53;5035054;28;20229;-66
2023/09/07 10:39:32;;;;;;;2.83;2.33;;;;;;;30.83;33.53;101388.03;5033374;28;20309;-66
2023/09/07 10:42:02;;;;;;;3.88;3.50;;;;;;;31.38;32.62;101383.81;5028019;28;20284;-66
2023/09/07 10:44:30;;;;;;;8.32;5.28;;;;;;;31.92;31.75;101384.91;5029868;28;20206;-67
2023/09/07 10:46:58;;;;;;;4.30;3.20;;;;;;;32.16;31.00;101382.09;5030491;28;20209;-67
2023/09/07 10:49:27;;;;;;;3.00;2.60;;;;;;;32.14;30.44;101381.34;5030760;28;20199;-66
2023/09/07 10:51:55;;;;;;;3.53;2.90;;;;;;;31.38;31.28;101388.31;5022589;28;20293;-63
2023/09/07 10:54:24;;;;;;;4.35;2.90;;;;;;;30.44;33.37;101386.50;5025861;28;20620;-64
2023/09/07 10:56:52;;;;;;;3.80;2.72;;;;;;;29.51;35.29;101392.22;5030719;28;20286;-64
2023/09/07 10:59:22;;;;;;;5.03;2.85;;;;;;;28.72;36.70;101381.66;5030477;28;20203;-61
2023/09/07 11:01:50;;;;;;;5.88;2.83;;;;;;;28.17;37.77;101396.72;5028754;28;20210;-64
2023/09/07 11:04:20;;;;;;;4.60;2.80;;;;;;;27.84;38.39;101391.75;5027728;28;20658;-65
2023/09/07 11:06:49;;;;;;;5.13;3.55;;;;;;;27.99;38.94;101388.13;5019075;28;20203;-63
2023/09/07 11:09:20;;;;;;;8.32;3.58;;;;;;;28.18;38.35;101391.31;5024214;28;20207;-65
2023/09/07 11:11:48;;;;;;;6.80;2.85;;;;;;;28.17;37.46;101381.66;5030858;28;20565;-65
2023/09/07 11:14:17;;;;;;;9.93;3.42;;;;;;;28.23;37.93;101379.56;5027459;28;20552;-62
2023/09/07 11:16:46;;;;;;;4.47;3.10;;;;;;;28.58;36.73;101379.97;5028750;28;20214;-64
2023/09/07 11:19:18;;;;;;;3.22;2.40;;;;;;;28.95;36.31;101377.50;5032243;28;20274;-64
2023/09/07 11:21:48;;;;;;;3.38;3.03;;;;;;;29.22;35.72;101372.97;5028524;28;20241;-62
2023/09/07 11:24:16;;;;;;;4.28;2.35;;;;;;;29.47;35.43;101374.78;5027775;28;20199;-63
2023/09/07 11:26:45;;;;;;;2.90;2.42;;;;;;;29.68;35.22;101367.16;5028330;28;20248;-63